Aeroporto :
LOGIN :

Iscrizione | Disclaimer

   EN    FR    IT 

 










Sommario :    VFR   VFR Marginale   IFR   IFR Intensivo   IFR Molto Intensivo
Visibilità : 
Base nubi : 
>= 8 km
>= 3000ft
5 / 8 km
1000 / 3000 ft
1500m / 5 km
500 / 1000 ft
800 / 1500m
200 / 500 ft
< 800m
< 200 ft
Simboli :   Temporali  Nebbia  Neve Forte  Precipitazioni Forti  Vento > 20 kt
SIGMETs :   Varie  Temporali  Ghiacco  Turbolenza  Onda orograficha  Ceneri Vulcaniche






- Altitudine del aeroporto : 121 ft
- Codice IATA : HUY


EGNJ - Humberside

ULTIMO METAR :
  • 151050Z 23010KT 9999 VCSH SCT012 BKN024 OVC040 16/13 Q1014

METARs OBSOLETI :
  • 151020Z 22010KT 9999 VCSH SCT010 BKN023 16/13 Q1014
  • 150950Z 22009KT 9999 VCSH FEW009 SCT012 BKN029 15/13 Q1014
  • 150920Z 23009KT 7000 -RA FEW009 SCT012 BKN029 15/13 Q1014
  • 150850Z 22009KT 7000 -RA FEW009 SCT012 BKN029 14/13 Q1014
  • 150820Z 23011KT 7000 -RA FEW009 SCT015 BKN032 14/13 Q1014

TAF TAF EGNJ
Valido dal 15 a 09 ore il 15 a 18 ore UTC


150802Z 1509/1518 22009KT 9999 SCT030
TEMPO 1509/1518 6000 RA BKN012
PROB30
TEMPO 1509/1511 4000 +RA BKN008
ATIS : +44 1652 682 020



MetMap, La meteo Aeronautica in un colpo d'occhio ! - Copyright ORBIFLY Dicembre 2007 - Disclaimer

ORBIFLY MET'MAP TEAM :

Programmazione e sviluppo : Alexandra Zaïnal
Concezione : Baudouin d'Aumeries
Aiuto per la programmazione : Marc-Olivier Méhu
Supporto tecnico e logistico : Manuel Goepfert
Aiuto per la traduzione : Arnaldo La Scala

Contatto : metmap@orbifly.com




FONTI E CREDITI :

   NOAA